createdAt,value
2018-03-17T00:00:25.675Z,0.62
2018-03-17T00:00:51.783Z,0.63
2018-03-17T00:01:17.887Z,0.69
2018-03-17T00:01:43.992Z,0.65
2018-03-17T00:02:10.099Z,0.78
2018-03-17T00:02:36.217Z,0.65
2018-03-17T00:03:02.320Z,0.65
2018-03-17T00:03:28.424Z,0.76
2018-03-17T00:03:54.531Z,0.69
2018-03-17T00:04:20.632Z,0.66
2018-03-17T00:04:46.735Z,0.62
2018-03-17T00:05:12.858Z,0.69
2018-03-17T00:05:38.962Z,0.62
2018-03-17T00:06:05.085Z,0.73
2018-03-17T00:06:31.189Z,0.66
2018-03-17T00:06:57.311Z,0.65
2018-03-17T00:07:23.416Z,0.7
2018-03-17T00:07:49.523Z,0.69
2018-03-17T00:08:15.661Z,0.66
2018-03-17T00:08:41.765Z,0.69
2018-03-17T00:09:07.870Z,0.63
2018-03-17T00:09:33.984Z,0.59
2018-03-17T00:10:00.099Z,0.6
2018-03-17T00:10:26.202Z,0.62
2018-03-17T00:10:52.307Z,0.56
2018-03-17T00:11:18.412Z,0.56
2018-03-17T00:11:44.520Z,0.55
2018-03-17T00:12:10.620Z,0.59
2018-03-17T00:12:36.724Z,0.6
2018-03-17T00:13:02.829Z,0.66
2018-03-17T00:13:28.930Z,0.59
2018-03-17T00:13:55.034Z,0.58
2018-03-17T00:14:21.135Z,0.49
2018-03-17T00:14:47.238Z,0.43
2018-03-17T00:15:13.343Z,0.52
2018-03-17T00:15:39.448Z,0.44
2018-03-17T00:16:05.552Z,0.5
2018-03-17T00:16:31.670Z,0.56
2018-03-17T00:16:57.796Z,0.49
2018-03-17T00:17:23.898Z,0.52
2018-03-17T00:17:50.019Z,0.52
2018-03-17T00:18:16.123Z,0.49
2018-03-17T00:18:42.229Z,0.56
2018-03-17T00:19:08.347Z,0.63
2018-03-17T00:19:34.450Z,0.69
2018-03-17T00:20:00.581Z,0.69
2018-03-17T00:20:26.676Z,0.73
2018-03-17T00:20:52.779Z,0.65
2018-03-17T00:21:18.879Z,0.73
2018-03-17T00:21:44.982Z,0.76
2018-03-17T00:22:11.086Z,0.78
2018-03-17T00:22:37.191Z,0.81
2018-03-17T00:23:03.296Z,0.8
2018-03-17T00:23:29.397Z,0.84
2018-03-17T00:23:55.501Z,0.8
2018-03-17T00:24:21.603Z,0.81
2018-03-17T00:24:47.763Z,0.83
2018-03-17T00:25:13.811Z,0.83
2018-03-17T00:25:39.918Z,0.8
2018-03-17T00:26:06.017Z,0.8
2018-03-17T00:26:32.119Z,0.83
2018-03-17T00:26:58.232Z,0.8
2018-03-17T00:27:24.326Z,0.81
2018-03-17T00:27:50.431Z,0.76
2018-03-17T00:28:16.536Z,0.74
2018-03-17T00:28:42.640Z,0.68
2018-03-17T00:29:08.743Z,0.59
2018-03-17T00:29:34.846Z,0.55
2018-03-17T00:30:00.951Z,0.49
2018-03-17T00:30:27.055Z,0.41
2018-03-17T00:30:53.159Z,0.44
2018-03-17T00:31:19.266Z,0.36
2018-03-17T00:31:45.370Z,0.36
2018-03-17T00:32:11.475Z,0.36
2018-03-17T00:32:37.579Z,0.46
2018-03-17T00:33:03.684Z,0.43
2018-03-17T00:33:29.789Z,0.36
2018-03-17T00:33:55.910Z,0.36
2018-03-17T00:34:22.012Z,0.36
2018-03-17T00:34:48.114Z,0.16
2018-03-17T00:35:14.218Z,0.21
2018-03-17T00:35:40.321Z,0.16
2018-03-17T00:36:06.426Z,0.26
2018-03-17T00:36:32.527Z,0.39
2018-03-17T00:36:58.632Z,0.32
2018-03-17T00:37:24.737Z,0.25
2018-03-17T00:37:50.837Z,0.16
2018-03-17T00:38:16.940Z,0.18
2018-03-17T00:38:43.046Z,0.32
2018-03-17T00:39:09.165Z,0.37
2018-03-17T00:39:35.273Z,0.4
2018-03-17T00:40:01.374Z,0.43
2018-03-17T00:40:27.478Z,0.4
2018-03-17T00:40:53.582Z,0.44
2018-03-17T00:41:19.703Z,0.34
2018-03-17T00:41:45.807Z,0.31
2018-03-17T00:42:11.918Z,0.19
2018-03-17T00:42:38.042Z,0.31
2018-03-17T00:43:04.163Z,0.36
2018-03-17T00:43:30.276Z,0.32
2018-03-17T00:43:56.416Z,0.31
2018-03-17T00:44:22.529Z,0.36
2018-03-17T00:44:48.650Z,0.41
2018-03-17T00:45:14.756Z,0.36
2018-03-17T00:45:40.900Z,0.37
2018-03-17T00:46:07.034Z,0.34
2018-03-17T00:46:33.157Z,0.36
2018-03-17T00:46:59.287Z,0.31
2018-03-17T00:47:25.413Z,0.41
2018-03-17T00:47:51.529Z,0.47
2018-03-17T00:48:17.642Z,0.5
2018-03-17T00:48:43.775Z,0.55
2018-03-17T00:49:09.873Z,0.49
2018-03-17T00:49:35.989Z,0.5
2018-03-17T00:50:02.109Z,0.44
2018-03-17T00:50:28.221Z,0.47
2018-03-17T00:50:54.349Z,0.49
2018-03-17T00:51:20.457Z,0.52
2018-03-17T00:51:46.579Z,0.39
2018-03-17T00:52:12.730Z,0.41
2018-03-17T00:52:38.802Z,0.34
2018-03-17T00:53:04.912Z,0.32
2018-03-17T00:53:31.059Z,0.32
2018-03-17T00:53:57.167Z,0.34
2018-03-17T00:54:23.271Z,0.32
2018-03-17T00:54:49.378Z,0.32
2018-03-17T00:55:15.502Z,0.29
2018-03-17T00:55:41.623Z,0.29
2018-03-17T00:56:07.731Z,0.31
2018-03-17T00:56:33.844Z,0.21
2018-03-17T00:56:59.964Z,0.23
2018-03-17T00:57:26.098Z,0.25
2018-03-17T00:57:52.194Z,0.25
2018-03-17T00:58:18.317Z,0.16
2018-03-17T00:58:44.428Z,0.22
2018-03-17T00:59:10.550Z,0.18
2018-03-17T00:59:36.666Z,0.19
2018-03-17T01:00:02.788Z,0.32
2018-03-17T01:00:28.900Z,0.23
2018-03-17T01:00:55.015Z,0.32
2018-03-17T01:01:21.129Z,0.41
2018-03-17T01:01:47.247Z,0.39
2018-03-17T01:02:13.406Z,0.36
2018-03-17T01:02:39.527Z,0.34
2018-03-17T01:03:05.649Z,0.36
2018-03-17T01:03:31.769Z,0.36
2018-03-17T01:03:57.882Z,0.32
2018-03-17T01:04:23.995Z,0.43
2018-03-17T01:04:50.110Z,0.32
2018-03-17T01:05:16.223Z,0.41
2018-03-17T01:05:42.364Z,0.26
2018-03-17T01:06:08.473Z,0.34
2018-03-17T01:06:34.601Z,0.21
2018-03-17T01:07:00.720Z,0.31
2018-03-17T01:07:26.828Z,0.26
2018-03-17T01:07:52.944Z,0.26
2018-03-17T01:08:19.066Z,0.31
2018-03-17T01:08:45.187Z,0.4
2018-03-17T01:09:11.302Z,0.31
2018-03-17T01:09:37.428Z,0.32
2018-03-17T01:10:03.544Z,0.4
2018-03-17T01:10:29.655Z,0.39
2018-03-17T01:10:55.771Z,0.41
2018-03-17T01:11:21.909Z,0.39
2018-03-17T01:11:48.026Z,0.28
2018-03-17T01:12:14.153Z,0.31
2018-03-17T01:12:40.273Z,0.19
2018-03-17T01:13:06.392Z,0.21
2018-03-17T01:13:32.509Z,0.16
2018-03-17T01:13:58.624Z,0.1
2018-03-17T01:14:24.744Z,0.11
2018-03-17T01:14:50.863Z,0.07
2018-03-17T01:15:16.976Z,0.07
2018-03-17T01:15:43.138Z,-0.02
2018-03-17T01:16:09.208Z,-0.08
2018-03-17T01:16:35.325Z,-0.14
2018-03-17T01:17:01.435Z,-0.08
2018-03-17T01:17:27.573Z,-0.1
2018-03-17T01:17:53.695Z,-0.23
2018-03-17T01:18:19.811Z,-0.26
2018-03-17T01:18:45.929Z,-0.29
2018-03-17T01:19:12.048Z,-0.38
2018-03-17T01:19:38.184Z,-0.26
2018-03-17T01:20:04.336Z,-0.35
2018-03-17T01:20:30.461Z,-0.29
2018-03-17T01:20:56.573Z,-0.25
2018-03-17T01:21:22.689Z,-0.32
2018-03-17T01:21:48.802Z,-0.29
2018-03-17T01:22:14.907Z,-0.29
2018-03-17T01:22:41.009Z,-0.31
2018-03-17T01:23:07.114Z,-0.32
2018-03-17T01:23:33.215Z,-0.29
2018-03-17T01:23:59.318Z,-0.32
2018-03-17T01:24:25.461Z,-0.25
2018-03-17T01:24:51.543Z,-0.28
2018-03-17T01:25:17.647Z,-0.23
2018-03-17T01:25:43.750Z,-0.23
2018-03-17T01:26:09.853Z,-0.32
2018-03-17T01:26:35.954Z,-0.25
2018-03-17T01:27:02.058Z,-0.28
2018-03-17T01:27:28.177Z,-0.25
2018-03-17T01:27:54.281Z,-0.21
2018-03-17T01:28:20.384Z,-0.07
2018-03-17T01:28:46.487Z,-0.17
2018-03-17T01:29:12.591Z,-0.18
2018-03-17T01:29:38.693Z,-0.28
2018-03-17T01:30:04.797Z,-0.28
2018-03-17T01:30:30.898Z,-0.32
2018-03-17T01:30:57.002Z,-0.31
2018-03-17T01:31:23.105Z,-0.32
2018-03-17T01:31:49.208Z,-0.29
2018-03-17T01:32:15.331Z,-0.29
2018-03-17T01:32:41.432Z,-0.26
2018-03-17T01:33:07.534Z,-0.26
2018-03-17T01:33:33.635Z,-0.23
2018-03-17T01:33:59.739Z,-0.29
2018-03-17T01:34:25.841Z,-0.29
2018-03-17T01:34:51.945Z,-0.34
2018-03-17T01:35:18.049Z,-0.29
2018-03-17T01:35:44.151Z,-0.32
2018-03-17T01:36:10.276Z,-0.29
2018-03-17T01:36:36.375Z,-0.26
2018-03-17T01:37:02.478Z,-0.21
2018-03-17T01:37:28.586Z,-0.23
2018-03-17T01:37:54.688Z,-0.26
2018-03-17T01:38:20.793Z,-0.15
2018-03-17T01:38:46.895Z,-0.26
2018-03-17T01:39:12.999Z,-0.36
2018-03-17T01:39:39.098Z,-0.36
2018-03-17T01:40:05.222Z,-0.38
2018-03-17T01:40:31.324Z,-0.38
2018-03-17T01:40:57.429Z,-0.46
2018-03-17T01:41:23.532Z,-0.54
2018-03-17T01:41:49.654Z,-0.67
2018-03-17T01:42:15.758Z,-0.64
2018-03-17T01:42:41.863Z,-0.67
2018-03-17T01:43:07.975Z,-0.67
2018-03-17T01:43:34.086Z,-0.64
2018-03-17T01:44:00.203Z,-0.61
2018-03-17T01:44:26.307Z,-0.64
2018-03-17T01:44:52.414Z,-0.64
2018-03-17T01:45:18.517Z,-0.62
2018-03-17T01:45:44.623Z,-0.64
2018-03-17T01:46:10.777Z,-0.59
2018-03-17T01:46:36.845Z,-0.49
2018-03-17T01:47:02.952Z,-0.54
2018-03-17T01:47:29.072Z,-0.49
2018-03-17T01:47:55.194Z,-0.49
2018-03-17T01:48:21.306Z,-0.49
2018-03-17T01:48:47.414Z,-0.49
2018-03-17T01:49:13.517Z,-0.35
2018-03-17T01:49:39.619Z,-0.53
2018-03-17T01:50:05.722Z,-0.44
2018-03-17T01:50:31.898Z,-0.41
2018-03-17T01:50:57.968Z,-0.44
2018-03-17T01:51:24.097Z,-0.44
2018-03-17T01:51:50.209Z,-0.5
2018-03-17T01:52:16.389Z,-0.38
2018-03-17T01:52:42.439Z,-0.47
2018-03-17T01:53:08.558Z,-0.52
2018-03-17T01:53:34.658Z,-0.53
2018-03-17T01:54:00.771Z,-0.53
2018-03-17T01:54:26.886Z,-0.56
2018-03-17T01:54:53.003Z,-0.49
2018-03-17T01:55:19.115Z,-0.44
2018-03-17T01:55:45.229Z,-0.49
2018-03-17T01:56:11.347Z,-0.36
2018-03-17T01:56:37.465Z,-0.52
2018-03-17T01:57:03.582Z,-0.44
2018-03-17T01:57:29.702Z,-0.54
2018-03-17T01:57:55.815Z,-0.54
2018-03-17T01:58:21.936Z,-0.54
2018-03-17T01:58:48.065Z,-0.43
2018-03-17T01:59:14.181Z,-0.44
2018-03-17T01:59:40.301Z,-0.53
2018-03-17T02:00:06.423Z,-0.54
2018-03-17T02:00:32.531Z,-0.62
2018-03-17T02:00:58.650Z,-0.68
2018-03-17T02:01:24.816Z,-0.59
2018-03-17T02:01:50.882Z,-0.53
2018-03-17T02:02:16.999Z,-0.49
2018-03-17T02:02:43.118Z,-0.54
2018-03-17T02:03:09.251Z,-0.47
2018-03-17T02:03:35.372Z,-0.47
2018-03-17T02:04:01.485Z,-0.44
2018-03-17T02:04:27.604Z,-0.39
2018-03-17T02:04:53.723Z,-0.52
2018-03-17T02:05:19.831Z,-0.54
2018-03-17T02:05:45.954Z,-0.46
2018-03-17T02:06:12.067Z,-0.53
2018-03-17T02:06:38.182Z,-0.5
2018-03-17T02:07:04.296Z,-0.53
2018-03-17T02:07:30.416Z,-0.56
2018-03-17T02:07:56.538Z,-0.53
2018-03-17T02:08:22.676Z,-0.52
2018-03-17T02:08:48.790Z,-0.49
2018-03-17T02:09:14.911Z,-0.47
2018-03-17T02:09:41.030Z,-0.53
2018-03-17T02:10:07.167Z,-0.59
2018-03-17T02:10:33.289Z,-0.67
2018-03-17T02:10:59.404Z,-0.64
2018-03-17T02:11:25.524Z,-0.64
2018-03-17T02:11:51.646Z,-0.67
2018-03-17T02:12:17.763Z,-0.64
2018-03-17T02:12:43.875Z,-0.65
2018-03-17T02:13:09.994Z,-0.64
2018-03-17T02:13:36.105Z,-0.53
2018-03-17T02:14:02.225Z,-0.54
2018-03-17T02:14:28.343Z,-0.47
2018-03-17T02:14:54.458Z,-0.43
2018-03-17T02:15:20.601Z,-0.43
2018-03-17T02:15:46.720Z,-0.5
2018-03-17T02:16:12.831Z,-0.43
2018-03-17T02:16:38.948Z,-0.41
2018-03-17T02:17:05.057Z,-0.43
2018-03-17T02:17:31.198Z,-0.5
2018-03-17T02:17:57.308Z,-0.44
2018-03-17T02:18:23.422Z,-0.52
2018-03-17T02:18:49.545Z,-0.57
2018-03-17T02:19:15.659Z,-0.53
2018-03-17T02:19:41.795Z,-0.56
2018-03-17T02:20:07.906Z,-0.56
2018-03-17T02:20:34.031Z,-0.62
2018-03-17T02:21:00.148Z,-0.64
2018-03-17T02:21:26.263Z,-0.64
2018-03-17T02:21:52.382Z,-0.64
2018-03-17T02:22:18.520Z,-0.72
2018-03-17T02:22:44.617Z,-0.65
2018-03-17T02:23:10.726Z,-0.7
2018-03-17T02:23:36.843Z,-0.68
2018-03-17T02:24:02.966Z,-0.67
2018-03-17T02:24:29.107Z,-0.77
2018-03-17T02:24:55.241Z,-0.86
2018-03-17T02:25:21.355Z,-0.9
2018-03-17T02:25:47.475Z,-0.82
2018-03-17T02:26:13.586Z,-0.86
2018-03-17T02:26:39.712Z,-0.78
2018-03-17T02:27:05.832Z,-0.78
2018-03-17T02:27:31.962Z,-0.7
2018-03-17T02:27:58.080Z,-0.8
2018-03-17T02:28:24.194Z,-0.75
2018-03-17T02:28:50.312Z,-0.71
2018-03-17T02:29:16.443Z,-0.72
2018-03-17T02:29:42.554Z,-0.7
2018-03-17T02:30:08.688Z,-0.59
2018-03-17T02:30:34.819Z,-0.62
2018-03-17T02:31:00.938Z,-0.7
2018-03-17T02:31:27.055Z,-0.64
2018-03-17T02:31:53.167Z,-0.62
2018-03-17T02:32:19.292Z,-0.64
2018-03-17T02:32:45.405Z,-0.74
2018-03-17T02:33:11.528Z,-0.71
2018-03-17T02:33:37.644Z,-0.7
2018-03-17T02:34:03.753Z,-0.67
2018-03-17T02:34:29.901Z,-0.65
2018-03-17T02:34:56.037Z,-0.77
2018-03-17T02:35:22.152Z,-0.78
2018-03-17T02:35:48.272Z,-0.7
2018-03-17T02:36:14.391Z,-0.86
2018-03-17T02:36:40.520Z,-0.75
2018-03-17T02:37:06.628Z,-0.7
2018-03-17T02:37:32.743Z,-0.65
2018-03-17T02:37:58.853Z,-0.67
2018-03-17T02:38:24.971Z,-0.68
2018-03-17T02:38:51.094Z,-0.71
2018-03-17T02:39:17.209Z,-0.68
2018-03-17T02:39:43.319Z,-0.74
2018-03-17T02:40:09.457Z,-0.75
2018-03-17T02:40:35.578Z,-0.65
2018-03-17T02:41:01.697Z,-0.67
2018-03-17T02:41:27.810Z,-0.68
2018-03-17T02:41:53.938Z,-0.75
2018-03-17T02:42:20.058Z,-0.67
2018-03-17T02:42:46.190Z,-0.67
2018-03-17T02:43:12.311Z,-0.67
2018-03-17T02:43:38.439Z,-0.71
2018-03-17T02:44:04.594Z,-0.64
2018-03-17T02:44:30.721Z,-0.7
2018-03-17T02:44:56.848Z,-0.67
2018-03-17T02:45:22.975Z,-0.7
2018-03-17T02:45:49.084Z,-0.75
2018-03-17T02:46:15.200Z,-0.65
2018-03-17T02:46:41.339Z,-0.77
2018-03-17T02:47:07.508Z,-0.68
2018-03-17T02:47:33.626Z,-0.65
2018-03-17T02:47:59.765Z,-0.64
2018-03-17T02:48:25.876Z,-0.71
2018-03-17T02:48:51.993Z,-0.61
2018-03-17T02:49:18.114Z,-0.71
2018-03-17T02:49:44.232Z,-0.62
2018-03-17T02:50:10.348Z,-0.7
2018-03-17T02:50:36.456Z,-0.65
2018-03-17T02:51:02.593Z,-0.72
2018-03-17T02:51:28.713Z,-0.64
2018-03-17T02:51:54.849Z,-0.64
2018-03-17T02:52:20.964Z,-0.62
2018-03-17T02:52:47.080Z,-0.62
2018-03-17T02:53:13.198Z,-0.57
2018-03-17T02:53:39.308Z,-0.49
2018-03-17T02:54:05.449Z,-0.62
2018-03-17T02:54:31.566Z,-0.67
2018-03-17T02:54:57.687Z,-0.67
2018-03-17T02:55:23.798Z,-0.67
2018-03-17T02:55:49.912Z,-0.64
2018-03-17T02:56:16.033Z,-0.68
2018-03-17T02:56:42.191Z,-0.68
2018-03-17T02:57:08.305Z,-0.65
2018-03-17T02:57:34.446Z,-0.74
2018-03-17T02:58:00.557Z,-0.77
2018-03-17T02:58:26.670Z,-0.85
2018-03-17T02:58:52.792Z,-0.8
2018-03-17T02:59:18.904Z,-0.91
2018-03-17T02:59:45.025Z,-0.85
2018-03-17T03:00:11.157Z,-0.93
2018-03-17T03:00:37.279Z,-0.96
2018-03-17T03:01:03.397Z,-0.94
2018-03-17T03:01:29.533Z,-0.9
2018-03-17T03:01:55.652Z,-1.01
2018-03-17T03:02:21.765Z,-0.93
2018-03-17T03:02:47.868Z,-1.01
2018-03-17T03:03:13.988Z,-1.02
2018-03-17T03:03:40.120Z,-0.9
2018-03-17T03:04:06.245Z,-0.96
2018-03-17T03:04:32.361Z,-0.9
2018-03-17T03:04:58.478Z,-0.96
2018-03-17T03:05:24.589Z,-0.86
2018-03-17T03:05:50.708Z,-0.86
2018-03-17T03:06:16.842Z,-1.08
2018-03-17T03:06:42.964Z,-1.05
2018-03-17T03:07:09.083Z,-1.01
2018-03-17T03:07:35.210Z,-1.05
2018-03-17T03:08:01.337Z,-1.07
2018-03-17T03:08:27.453Z,-1.15
2018-03-17T03:08:53.570Z,-1.12
2018-03-17T03:09:19.685Z,-1.22
2018-03-17T03:09:45.823Z,-1.14
2018-03-17T03:10:11.942Z,-1.19
2018-03-17T03:10:38.062Z,-1.19
2018-03-17T03:11:04.182Z,-1.17
2018-03-17T03:11:30.300Z,-1.22
2018-03-17T03:11:56.411Z,-1.2
2018-03-17T03:12:22.537Z,-1.14
2018-03-17T03:12:48.648Z,-1.09
2018-03-17T03:13:14.763Z,-1.04
2018-03-17T03:13:40.880Z,-1.04
2018-03-17T03:14:06.997Z,-1.07
2018-03-17T03:14:33.117Z,-1.05
2018-03-17T03:14:59.229Z,-0.97
2018-03-17T03:15:25.348Z,-0.9
2018-03-17T03:15:51.467Z,-0.96
2018-03-17T03:16:17.583Z,-0.93
2018-03-17T03:16:43.712Z,-0.93
2018-03-17T03:17:09.855Z,-0.86
2018-03-17T03:17:35.966Z,-0.9
2018-03-17T03:18:02.091Z,-0.9
2018-03-17T03:18:28.208Z,-0.9
2018-03-17T03:18:54.322Z,-0.93
2018-03-17T03:19:20.438Z,-0.97
2018-03-17T03:19:46.571Z,-1.02
2018-03-17T03:20:12.684Z,-0.97
2018-03-17T03:20:38.807Z,-0.99
2018-03-17T03:21:04.924Z,-1.01
2018-03-17T03:21:31.040Z,-1.01
2018-03-17T03:21:57.155Z,-1.04
2018-03-17T03:22:23.299Z,-0.99
2018-03-17T03:22:49.405Z,-1.01
2018-03-17T03:23:15.528Z,-0.96
2018-03-17T03:23:41.644Z,-1.04
2018-03-17T03:24:07.760Z,-0.96
2018-03-17T03:24:33.882Z,-1.01
2018-03-17T03:24:59.999Z,-0.89
2018-03-17T03:25:26.116Z,-0.85
2018-03-17T03:25:52.237Z,-0.89
2018-03-17T03:26:18.356Z,-0.85
2018-03-17T03:26:44.466Z,-0.99
2018-03-17T03:27:10.580Z,-0.85
2018-03-17T03:27:36.697Z,-0.97
2018-03-17T03:28:02.814Z,-0.96
2018-03-17T03:28:28.935Z,-0.85
2018-03-17T03:28:55.043Z,-0.82
2018-03-17T03:29:21.182Z,-0.85
2018-03-17T03:29:47.316Z,-0.77
2018-03-17T03:30:13.454Z,-0.68
2018-03-17T03:30:39.597Z,-0.74
2018-03-17T03:31:05.712Z,-0.64
2018-03-17T03:31:31.826Z,-0.7
2018-03-17T03:31:57.947Z,-0.7
2018-03-17T03:32:24.058Z,-0.72
2018-03-17T03:32:50.186Z,-0.85
2018-03-17T03:33:16.367Z,-0.97
2018-03-17T03:33:42.422Z,-0.94
2018-03-17T03:34:08.534Z,-0.96
2018-03-17T03:34:34.657Z,-0.99
2018-03-17T03:35:00.813Z,-1.07
2018-03-17T03:35:26.925Z,-1.01
2018-03-17T03:35:53.035Z,-1.02
2018-03-17T03:36:19.158Z,-1.05
2018-03-17T03:36:45.293Z,-0.89
2018-03-17T03:37:11.412Z,-0.91
2018-03-17T03:37:37.523Z,-0.91
2018-03-17T03:38:03.642Z,-0.85
2018-03-17T03:38:29.768Z,-0.94
2018-03-17T03:38:55.874Z,-1.01
2018-03-17T03:39:21.989Z,-0.96
2018-03-17T03:39:48.110Z,-0.96
2018-03-17T03:40:14.230Z,-1.04
2018-03-17T03:40:40.377Z,-1.02
2018-03-17T03:41:06.490Z,-1.04
2018-03-17T03:41:32.613Z,-1.04
2018-03-17T03:41:58.727Z,-1.02
2018-03-17T03:42:24.851Z,-1.02
2018-03-17T03:42:50.988Z,-0.96
2018-03-17T03:43:17.099Z,-1.02
2018-03-17T03:43:43.218Z,-0.97
2018-03-17T03:44:09.349Z,-0.86
2018-03-17T03:44:35.451Z,-0.86
2018-03-17T03:45:01.573Z,-0.89
2018-03-17T03:45:27.728Z,-0.86
2018-03-17T03:45:53.848Z,-1.02
2018-03-17T03:46:19.981Z,-1.04
2018-03-17T03:46:46.092Z,-1.05
2018-03-17T03:47:12.210Z,-1.07
2018-03-17T03:47:38.330Z,-1.07
2018-03-17T03:48:04.436Z,-1.11
2018-03-17T03:48:30.552Z,-1.11
2018-03-17T03:48:56.673Z,-1.19
2018-03-17T03:49:22.791Z,-1.2
2018-03-17T03:49:48.909Z,-1.27
2018-03-17T03:50:15.024Z,-1.37
2018-03-17T03:50:41.140Z,-1.35
2018-03-17T03:51:07.287Z,-1.26
2018-03-17T03:51:33.404Z,-1.23
2018-03-17T03:51:59.512Z,-1.19
2018-03-17T03:52:25.655Z,-1.19
2018-03-17T03:52:51.778Z,-1.23
2018-03-17T03:53:17.887Z,-1.2
2018-03-17T03:53:44.005Z,-1.19
2018-03-17T03:54:10.132Z,-1.17
2018-03-17T03:54:36.237Z,-1.17
2018-03-17T03:55:02.354Z,-1.22
2018-03-17T03:55:28.466Z,-1.22
2018-03-17T03:55:54.586Z,-1.23
2018-03-17T03:56:20.704Z,-1.37
2018-03-17T03:56:46.824Z,-1.38
2018-03-17T03:57:12.938Z,-1.26
2018-03-17T03:57:39.058Z,-1.3
2018-03-17T03:58:05.167Z,-1.37
2018-03-17T03:58:31.282Z,-1.29
2018-03-17T03:58:57.406Z,-1.22
2018-03-17T03:59:23.519Z,-1.22
2018-03-17T03:59:49.638Z,-1.22
2018-03-17T04:00:15.748Z,-1.22
2018-03-17T04:00:41.874Z,-1.19
2018-03-17T04:01:07.980Z,-1.2
2018-03-17T04:01:34.100Z,-1.12
2018-03-17T04:02:00.228Z,-1.12
2018-03-17T04:02:26.345Z,-1.09
2018-03-17T04:02:52.465Z,-1.05
2018-03-17T04:03:18.583Z,-1.01
2018-03-17T04:03:44.709Z,-1.12
2018-03-17T04:04:10.818Z,-1.09
2018-03-17T04:04:36.934Z,-1.05
2018-03-17T04:05:03.058Z,-1.04
2018-03-17T04:05:29.177Z,-1.08
2018-03-17T04:05:55.312Z,-1.08
2018-03-17T04:06:21.429Z,-1.02
2018-03-17T04:06:47.540Z,-1.12
2018-03-17T04:07:13.656Z,-1.04
2018-03-17T04:07:39.775Z,-1.02
2018-03-17T04:08:05.890Z,-1.08
2018-03-17T04:08:32.011Z,-1.09
2018-03-17T04:08:58.130Z,-1.11
2018-03-17T04:09:24.248Z,-1.19
2018-03-17T04:09:50.365Z,-1.17
2018-03-17T04:10:16.480Z,-1.11
2018-03-17T04:10:42.598Z,-1.08
2018-03-17T04:11:08.709Z,-1.04
2018-03-17T04:11:34.827Z,-1.08
2018-03-17T04:12:00.946Z,-1.02
2018-03-17T04:12:27.063Z,-1.09
2018-03-17T04:12:53.173Z,-1.04
2018-03-17T04:13:19.292Z,-1.05
2018-03-17T04:13:45.402Z,-1.02
2018-03-17T04:14:11.521Z,-1.01
2018-03-17T04:14:37.627Z,-0.93
2018-03-17T04:15:03.767Z,-0.9
2018-03-17T04:15:29.888Z,-0.93
2018-03-17T04:15:56.013Z,-0.9
2018-03-17T04:16:22.145Z,-0.93
2018-03-17T04:16:48.260Z,-1.07
2018-03-17T04:17:14.374Z,-1.09
2018-03-17T04:17:40.497Z,-1.17
2018-03-17T04:18:06.630Z,-1.26
2018-03-17T04:18:32.751Z,-1.3
2018-03-17T04:18:58.867Z,-1.35
2018-03-17T04:19:24.985Z,-1.2
2018-03-17T04:19:51.100Z,-1.33
2018-03-17T04:20:17.210Z,-1.27
2018-03-17T04:20:43.337Z,-1.32
2018-03-17T04:21:09.447Z,-1.3
2018-03-17T04:21:35.568Z,-1.35
2018-03-17T04:22:01.684Z,-1.33
2018-03-17T04:22:27.796Z,-1.27
2018-03-17T04:22:53.909Z,-1.33
2018-03-17T04:23:20.032Z,-1.23
2018-03-17T04:23:46.148Z,-1.23
2018-03-17T04:24:12.263Z,-1.09
2018-03-17T04:24:38.384Z,-1.17
2018-03-17T04:25:04.492Z,-1.19
2018-03-17T04:25:30.611Z,-1.26
2018-03-17T04:25:56.732Z,-1.29
2018-03-17T04:26:22.902Z,-1.26
2018-03-17T04:26:49.021Z,-1.3
2018-03-17T04:27:15.143Z,-1.26
2018-03-17T04:27:41.254Z,-1.37
2018-03-17T04:28:07.382Z,-1.37
2018-03-17T04:28:33.487Z,-1.37
2018-03-17T04:28:59.630Z,-1.32
2018-03-17T04:29:25.748Z,-1.22
2018-03-17T04:29:51.879Z,-1.26
2018-03-17T04:30:18.014Z,-1.35
2018-03-17T04:30:44.129Z,-1.3
2018-03-17T04:31:10.247Z,-1.27
2018-03-17T04:31:36.374Z,-1.27
2018-03-17T04:32:02.485Z,-1.15
2018-03-17T04:32:28.600Z,-1.32
2018-03-17T04:32:54.721Z,-1.37
2018-03-17T04:33:20.846Z,-1.3
2018-03-17T04:33:46.960Z,-1.26
2018-03-17T04:34:13.105Z,-1.19
2018-03-17T04:34:39.224Z,-1.17
2018-03-17T04:35:05.343Z,-1.2
2018-03-17T04:35:31.463Z,-1.25
2018-03-17T04:35:57.574Z,-1.09
2018-03-17T04:36:23.718Z,-1.07
2018-03-17T04:36:49.826Z,-1.07
2018-03-17T04:37:15.944Z,-1.04
2018-03-17T04:37:42.085Z,-0.96
2018-03-17T04:38:08.196Z,-0.93
2018-03-17T04:38:34.333Z,-0.96
2018-03-17T04:39:00.485Z,-0.94
2018-03-17T04:39:26.604Z,-0.94
2018-03-17T04:39:52.725Z,-0.96
2018-03-17T04:40:18.839Z,-0.93
2018-03-17T04:40:44.962Z,-0.93
2018-03-17T04:41:11.073Z,-1.02
2018-03-17T04:41:37.194Z,-1.08
2018-03-17T04:42:03.312Z,-1.09
2018-03-17T04:42:29.426Z,-1.17
2018-03-17T04:42:55.547Z,-1.08
2018-03-17T04:43:21.659Z,-1.08
2018-03-17T04:43:47.772Z,-1.04
2018-03-17T04:44:13.890Z,-1.09
2018-03-17T04:44:40.014Z,-1.01
2018-03-17T04:45:06.127Z,-1.05
2018-03-17T04:45:32.244Z,-1.04
2018-03-17T04:45:58.367Z,-0.94
2018-03-17T04:46:24.478Z,-1.04
2018-03-17T04:46:50.605Z,-1.02
2018-03-17T04:47:16.751Z,-1.01
2018-03-17T04:47:42.838Z,-1.08
2018-03-17T04:48:08.957Z,-1.09
2018-03-17T04:48:35.067Z,-1.15
2018-03-17T04:49:01.193Z,-1.02
2018-03-17T04:49:27.304Z,-1.04
2018-03-17T04:49:53.422Z,-1.01
2018-03-17T04:50:19.537Z,-0.97
2018-03-17T04:50:45.652Z,-1.05
2018-03-17T04:51:11.772Z,-1.04
2018-03-17T04:51:37.891Z,-1.05
2018-03-17T04:52:04.000Z,-1.05
2018-03-17T04:52:30.116Z,-0.97
2018-03-17T04:52:56.239Z,-1.04
2018-03-17T04:53:22.368Z,-1.23
2018-03-17T04:53:48.489Z,-1.2
2018-03-17T04:54:14.618Z,-1.32
2018-03-17T04:54:40.728Z,-1.37
2018-03-17T04:55:06.846Z,-1.29
2018-03-17T04:55:32.962Z,-1.51
2018-03-17T04:55:59.081Z,-1.43
2018-03-17T04:56:25.191Z,-1.51
2018-03-17T04:56:51.337Z,-1.64
2018-03-17T04:57:17.447Z,-1.56
2018-03-17T04:57:43.570Z,-1.61
2018-03-17T04:58:09.677Z,-1.51
2018-03-17T04:58:35.790Z,-1.51
2018-03-17T04:59:01.909Z,-1.41
2018-03-17T04:59:28.020Z,-1.46
2018-03-17T04:59:54.138Z,-1.48
2018-03-17T05:00:20.249Z,-1.46
2018-03-17T05:00:46.370Z,-1.46
2018-03-17T05:01:12.495Z,-1.44
2018-03-17T05:01:38.609Z,-1.56
2018-03-17T05:02:04.721Z,-1.51
2018-03-17T05:02:30.886Z,-1.43
2018-03-17T05:02:56.980Z,-1.47
2018-03-17T05:03:23.095Z,-1.44
2018-03-17T05:03:49.211Z,-1.46
2018-03-17T05:04:15.328Z,-1.44
2018-03-17T05:04:41.441Z,-1.5
2018-03-17T05:05:07.589Z,-1.48
2018-03-17T05:05:33.705Z,-1.5
2018-03-17T05:05:59.819Z,-1.46
2018-03-17T05:06:25.937Z,-1.33
2018-03-17T05:06:52.056Z,-1.35
2018-03-17T05:07:18.172Z,-1.3
2018-03-17T05:07:44.285Z,-1.38
2018-03-17T05:08:10.401Z,-1.37
2018-03-17T05:08:36.518Z,-1.33
2018-03-17T05:09:02.650Z,-1.32
2018-03-17T05:09:28.775Z,-1.37
2018-03-17T05:09:54.942Z,-1.3
2018-03-17T05:10:21.014Z,-1.26
2018-03-17T05:10:47.134Z,-1.32
2018-03-17T05:11:13.261Z,-1.27
2018-03-17T05:11:39.377Z,-1.35
2018-03-17T05:12:05.505Z,-1.41
2018-03-17T05:12:31.662Z,-1.4
2018-03-17T05:12:57.774Z,-1.51
2018-03-17T05:13:23.895Z,-1.56
2018-03-17T05:13:50.009Z,-1.44
2018-03-17T05:14:16.126Z,-1.5
2018-03-17T05:14:42.246Z,-1.51
2018-03-17T05:15:08.372Z,-1.56
2018-03-17T05:15:34.490Z,-1.59
2018-03-17T05:16:00.610Z,-1.56
2018-03-17T05:16:26.746Z,-1.56
2018-03-17T05:16:52.868Z,-1.54
2018-03-17T05:17:18.981Z,-1.62
2018-03-17T05:17:45.097Z,-1.58
2018-03-17T05:18:11.215Z,-1.47
2018-03-17T05:18:37.328Z,-1.46
2018-03-17T05:19:03.443Z,-1.44
2018-03-17T05:19:29.559Z,-1.46
2018-03-17T05:19:55.707Z,-1.4
2018-03-17T05:20:21.808Z,-1.4
2018-03-17T05:20:47.936Z,-1.44
2018-03-17T05:21:14.048Z,-1.4
2018-03-17T05:21:40.164Z,-1.47
2018-03-17T05:22:06.279Z,-1.54
2018-03-17T05:22:32.399Z,-1.53
2018-03-17T05:22:58.513Z,-1.46
2018-03-17T05:23:24.627Z,-1.51
2018-03-17T05:23:50.741Z,-1.51
2018-03-17T05:24:16.863Z,-1.54
2018-03-17T05:24:42.981Z,-1.53
2018-03-17T05:25:09.105Z,-1.48
2018-03-17T05:25:35.220Z,-1.58
2018-03-17T05:26:01.331Z,-1.64
2018-03-17T05:26:27.453Z,-1.65
2018-03-17T05:26:53.595Z,-1.68
2018-03-17T05:27:19.718Z,-1.54
2018-03-17T05:27:45.828Z,-1.62
2018-03-17T05:28:11.947Z,-1.56
2018-03-17T05:28:38.061Z,-1.58
2018-03-17T05:29:04.173Z,-1.59
2018-03-17T05:29:30.292Z,-1.66
2018-03-17T05:29:56.412Z,-1.66
2018-03-17T05:30:22.525Z,-1.68
2018-03-17T05:30:48.641Z,-1.65
2018-03-17T05:31:14.760Z,-1.58
2018-03-17T05:31:40.874Z,-1.59
2018-03-17T05:32:06.993Z,-1.51
2018-03-17T05:32:33.104Z,-1.53
2018-03-17T05:32:59.219Z,-1.47
2018-03-17T05:33:25.340Z,-1.53
2018-03-17T05:33:51.454Z,-1.56
2018-03-17T05:34:17.573Z,-1.58
2018-03-17T05:34:43.688Z,-1.56
2018-03-17T05:35:09.802Z,-1.54
2018-03-17T05:35:35.921Z,-1.66
2018-03-17T05:36:02.050Z,-1.65
2018-03-17T05:36:28.172Z,-1.59
2018-03-17T05:36:54.288Z,-1.58
2018-03-17T05:37:20.404Z,-1.61
2018-03-17T05:37:46.524Z,-1.64
2018-03-17T05:38:12.641Z,-1.69
2018-03-17T05:38:38.754Z,-1.69
2018-03-17T05:39:04.874Z,-1.69
2018-03-17T05:39:30.987Z,-1.69
2018-03-17T05:39:57.113Z,-1.77